Time;durP1;ratioP1;P1;durP2;ratioP2;P2;SDS_P1;SDS_P2;PMS_P1;PMS_P2;Temp;Humidity;BMP_temperature;BMP_pressure;BME280_temperature;BME280_humidity;BME280_pressure;Samples;Min_cycle;Max_cycle;Signal;HPM_P1;HPM_P2
2021/12/19 00:00:35;;;;;;;13.23;7.67;;;;;;;-0.62;85.16;96250.47;1779218;81;21023;-67
2021/12/19 00:11:03;;;;;;;6.30;4.20;;;;;;;-0.60;85.27;96244.52;1779596;81;21504;-68
2021/12/19 00:13:31;;;;;;;6.93;3.60;;;;;;;-0.60;85.28;96235.45;1779319;81;21170;-67
2021/12/19 00:15:58;;;;;;;5.83;3.63;;;;;;;-0.63;85.53;96233.14;1779437;81;21473;-67
2021/12/19 00:18:24;;;;;;;5.53;3.33;;;;;;;-0.62;85.08;96225.43;1779571;81;21127;-67
2021/12/19 00:20:51;;;;;;;5.87;3.57;;;;;;;-0.59;85.07;96223.36;1779238;81;21056;-68
2021/12/19 00:23:18;;;;;;;4.80;3.43;;;;;;;-0.59;85.23;96221.64;1779356;81;21083;-68
2021/12/19 00:25:45;;;;;;;7.17;4.00;;;;;;;-0.64;85.47;96211.95;1773356;81;21023;-67
2021/12/19 00:28:12;;;;;;;7.23;4.27;;;;;;;-0.64;85.63;96209.36;1770537;81;21095;-67
2021/12/19 00:30:38;;;;;;;7.00;4.30;;;;;;;-0.68;85.81;96213.54;1770859;81;20992;-68
2021/12/19 00:33:05;;;;;;;6.63;4.80;;;;;;;-0.70;85.84;96207.03;1770815;81;21014;-68
2021/12/19 00:35:31;;;;;;;8.27;5.53;;;;;;;-0.69;85.89;96207.91;1770865;81;21361;-67
2021/12/19 00:37:58;;;;;;;7.90;4.57;;;;;;;-0.72;86.11;96200.03;1770915;81;21513;-67
2021/12/19 00:40:25;;;;;;;8.87;5.03;;;;;;;-0.76;86.48;96199.45;1771111;81;21031;-67
2021/12/19 00:43:02;;;;;;;6.40;4.77;;;;;;;-0.80;86.51;96193.71;1770736;81;21020;-68
2021/12/19 00:45:27;;;;;;;7.53;4.93;;;;;;;-0.83;87.10;96190.60;1770479;81;21064;-67
2021/12/19 00:47:48;;;;;;;9.10;5.60;;;;;;;-0.85;87.20;96192.67;1770885;81;21008;-67
2021/12/19 00:50:15;;;;;;;8.03;3.90;;;;;;;-0.79;86.82;96189.86;1770458;81;21521;-67
2021/12/19 00:52:46;;;;;;;8.27;4.53;;;;;;;-0.78;86.76;96189.44;1770702;81;21095;-67
2021/12/19 00:55:17;;;;;;;7.87;4.90;;;;;;;-0.75;86.45;96182.67;1771027;81;21067;-67
2021/12/19 00:57:44;;;;;;;7.47;4.23;;;;;;;-0.74;86.42;96187.43;1771158;81;21500;-67
2021/12/19 01:00:15;;;;;;;8.90;4.30;;;;;;;-0.76;86.48;96181.31;1770767;81;20985;-67
2021/12/19 01:02:42;;;;;;;8.27;4.57;;;;;;;-0.74;86.34;96175.77;1770989;81;21019;-67
2021/12/19 01:05:10;;;;;;;6.90;3.27;;;;;;;-0.71;86.32;96175.87;1770542;81;21473;-67
2021/12/19 01:07:37;;;;;;;7.30;3.57;;;;;;;-0.72;86.43;96166.34;1770905;81;21000;-68
2021/12/19 01:10:07;;;;;;;6.73;4.30;;;;;;;-0.75;86.49;96162.36;1770516;81;21095;-67
2021/12/19 01:12:37;;;;;;;4.83;3.40;;;;;;;-0.73;86.31;96156.40;1771149;81;21434;-67
2021/12/19 01:15:07;;;;;;;6.77;4.40;;;;;;;-0.73;86.37;96151.61;1770948;81;21020;-67
2021/12/19 01:17:33;;;;;;;4.87;2.93;;;;;;;-0.68;86.01;96155.23;1771000;81;21004;-67
2021/12/19 01:20:00;;;;;;;6.37;3.80;;;;;;;-0.66;85.93;96148.01;1771217;81;21000;-67
2021/12/19 01:22:26;;;;;;;7.47;4.17;;;;;;;-0.66;85.73;96146.71;1770716;81;21127;-67
2021/12/19 01:24:53;;;;;;;5.07;3.70;;;;;;;-0.63;85.62;96139.84;1770774;81;21023;-67
2021/12/19 01:27:19;;;;;;;4.40;3.10;;;;;;;-0.60;85.46;96134.78;1770829;81;21038;-67
2021/12/19 01:29:46;;;;;;;7.00;3.83;;;;;;;-0.63;85.30;96132.98;1770919;81;21088;-67
2021/12/19 01:32:12;;;;;;;6.00;3.77;;;;;;;-0.63;85.29;96128.18;1770967;81;20992;-67
2021/12/19 01:34:39;;;;;;;6.90;4.20;;;;;;;-0.62;85.21;96117.88;1771114;81;21007;-67
2021/12/19 01:37:05;;;;;;;5.10;3.73;;;;;;;-0.64;85.25;96114.34;1771008;81;21004;-67
2021/12/19 01:39:32;;;;;;;7.20;3.67;;;;;;;-0.64;85.16;96109.16;1770908;81;21065;-67
2021/12/19 01:41:59;;;;;;;5.93;3.77;;;;;;;-0.64;85.20;96107.88;1770800;81;21070;-67
2021/12/19 01:44:26;;;;;;;4.90;3.60;;;;;;;-0.62;84.89;96106.21;1771252;81;21023;-67
2021/12/19 01:46:53;;;;;;;3.50;2.70;;;;;;;-0.60;84.75;96102.39;1770926;81;20980;-67
2021/12/19 01:49:22;;;;;;;7.13;3.57;;;;;;;-0.61;84.60;96102.78;1771040;81;20984;-67
2021/12/19 01:51:49;;;;;;;5.77;2.93;;;;;;;-0.58;84.28;96105.50;1771071;81;20996;-66
2021/12/19 01:54:16;;;;;;;4.00;2.80;;;;;;;-0.60;84.26;96096.78;1770816;81;20980;-66
2021/12/19 01:56:43;;;;;;;4.07;2.50;;;;;;;-0.59;84.04;96098.95;1770746;81;21084;-67
2021/12/19 01:59:10;;;;;;;4.07;2.90;;;;;;;-0.53;83.53;96106.91;1771192;81;21020;-67
2021/12/19 02:01:51;;;;;;;3.77;2.90;;;;;;;-0.54;83.35;96104.74;1770924;81;21023;-67
2021/12/19 02:04:21;;;;;;;3.40;1.93;;;;;;;-0.50;83.32;96104.02;1771099;81;21011;-67
2021/12/19 02:06:49;;;;;;;6.67;3.00;;;;;;;-0.48;82.98;96103.66;1770785;81;21027;-67
2021/12/19 02:09:17;;;;;;;5.73;3.17;;;;;;;-0.40;83.19;96095.22;1770823;81;21075;-67
2021/12/19 02:11:44;;;;;;;5.37;2.73;;;;;;;-0.36;83.10;96091.91;1770952;81;21012;-67
2021/12/19 02:14:11;;;;;;;4.67;2.83;;;;;;;-0.37;82.41;96081.08;1770777;81;21083;-68
2021/12/19 02:16:41;;;;;;;4.17;3.23;;;;;;;-0.38;82.43;96074.98;1770939;81;21072;-67
2021/12/19 02:19:10;;;;;;;6.80;3.57;;;;;;;-0.34;82.23;96070.80;1771000;81;20983;-67
2021/12/19 02:21:37;;;;;;;9.83;5.93;;;;;;;-0.35;81.87;96065.12;1771003;81;21126;-67
2021/12/19 02:24:09;;;;;;;5.80;3.63;;;;;;;-0.32;81.91;96065.25;1770854;81;21000;-67
2021/12/19 02:26:39;;;;;;;10.93;5.30;;;;;;;-0.31;81.47;96065.70;1770929;81;21031;-67
2021/12/19 02:29:06;;;;;;;11.53;5.20;;;;;;;-0.29;81.55;96057.56;1770896;81;20992;-68
2021/12/19 02:31:34;;;;;;;9.43;3.70;;;;;;;-0.27;81.40;96056.77;1770921;81;21033;-67
2021/12/19 02:34:18;;;;;;;7.93;5.03;;;;;;;-0.29;81.24;96044.59;1770568;81;21032;-67
2021/12/19 02:50:17;;;;;;;8.33;3.80;;;;;;;-0.17;80.83;96036.31;1770862;81;21084;-67
2021/12/19 02:52:44;;;;;;;6.90;3.47;;;;;;;-0.14;80.84;96030.78;1771170;81;21000;-67
2021/12/19 02:55:16;;;;;;;3.80;2.50;;;;;;;-0.16;80.75;96032.45;1770763;81;21505;-67
2021/12/19 02:57:43;;;;;;;6.20;3.57;;;;;;;-0.16;81.04;96033.74;1771032;81;21020;-67
2021/12/19 03:00:15;;;;;;;5.40;3.03;;;;;;;-0.14;81.14;96021.70;1770757;81;21059;-67
2021/12/19 03:02:42;;;;;;;8.27;4.10;;;;;;;-0.11;80.98;96017.90;1770934;81;21119;-67
2021/12/19 03:05:09;;;;;;;6.73;3.73;;;;;;;-0.07;80.74;96017.59;1770749;81;21076;-67
2021/12/19 03:07:41;;;;;;;4.80;2.70;;;;;;;-0.07;80.48;96022.78;1770996;81;21051;-67
2021/12/19 03:13:06;;;;;;;5.08;3.12;;;;;;;-0.09;80.46;96002.39;1706333;81;21043;-67
2021/12/19 03:18:07;;;;;;;5.77;2.90;;;;;;;-0.08;80.39;96001.55;1770865;81;21487;-67
2021/12/19 03:20:36;;;;;;;3.63;2.60;;;;;;;-0.10;80.59;95992.83;1770787;81;21070;-67
2021/12/19 03:23:05;;;;;;;3.90;2.27;;;;;;;-0.06;80.65;95989.50;1771010;81;21011;-67
2021/12/19 03:25:34;;;;;;;4.20;3.00;;;;;;;-0.01;80.62;95995.70;1770698;81;21067;-67
2021/12/19 03:28:05;;;;;;;4.00;2.83;;;;;;;0.00;80.70;95985.80;1770651;81;21104;-67
2021/12/19 03:30:34;;;;;;;5.20;2.70;;;;;;;0.04;80.69;95989.35;1770919;81;20988;-67
2021/12/19 03:33:01;;;;;;;5.10;3.27;;;;;;;0.05;80.52;95980.33;1770881;81;21014;-67
2021/12/19 03:35:29;;;;;;;4.60;3.10;;;;;;;0.09;80.25;95978.26;1771129;81;21015;-67
2021/12/19 03:37:59;;;;;;;4.23;2.97;;;;;;;0.13;80.18;95973.62;1770863;81;21558;-67
2021/12/19 03:40:51;;;;;;;3.20;2.27;;;;;;;0.12;80.07;95980.06;1770775;81;21067;-67
2021/12/19 03:42:57;;;;;;;2.37;1.80;;;;;;;0.15;80.12;95971.05;1764534;81;21043;-67
2021/12/19 03:45:25;;;;;;;4.63;2.43;;;;;;;0.18;79.83;95973.76;1770666;81;21111;-67
2021/12/19 03:47:51;;;;;;;5.50;2.30;;;;;;;0.20;79.77;95964.27;1770656;81;21130;-67
2021/12/19 03:50:22;;;;;;;3.90;2.20;;;;;;;0.21;79.98;95961.73;1770895;81;21059;-67
2021/12/19 03:52:52;;;;;;;3.70;2.50;;;;;;;0.23;79.85;95959.19;1770724;81;21019;-67
2021/12/19 03:55:20;;;;;;;5.57;2.90;;;;;;;0.24;79.73;95956.17;1770733;81;21080;-67
2021/12/19 03:57:48;;;;;;;3.73;2.70;;;;;;;0.23;79.71;95966.07;1770873;81;21059;-67
2021/12/19 04:00:23;;;;;;;5.10;2.90;;;;;;;0.17;79.75;95959.88;1770746;81;21012;-68
2021/12/19 04:02:47;;;;;;;3.17;2.23;;;;;;;0.18;79.60;95955.59;1770741;81;21027;-68
2021/12/19 04:05:14;;;;;;;3.50;2.23;;;;;;;0.15;79.80;95945.11;1770931;81;21031;-67
2021/12/19 04:07:41;;;;;;;3.80;2.63;;;;;;;0.14;79.83;95945.95;1770845;81;21474;-67
2021/12/19 04:10:08;;;;;;;4.50;2.70;;;;;;;0.15;79.89;95945.11;1770795;81;21111;-68
2021/12/19 04:12:35;;;;;;;4.40;2.73;;;;;;;0.16;79.90;95940.39;1770858;81;21015;-67
2021/12/19 04:15:03;;;;;;;3.83;2.53;;;;;;;0.16;79.77;95939.97;1770592;81;21560;-68
2021/12/19 04:17:29;;;;;;;4.30;3.30;;;;;;;0.14;79.83;95936.88;1771050;81;21087;-68
2021/12/19 04:19:56;;;;;;;3.87;2.97;;;;;;;0.13;80.05;95938.59;1770779;81;20968;-68
2021/12/19 04:22:23;;;;;;;6.00;3.33;;;;;;;0.18;80.00;95936.13;1770935;81;21103;-67
2021/12/19 04:24:49;;;;;;;3.83;2.87;;;;;;;0.19;80.06;95942.64;1770681;81;21003;-67
2021/12/19 04:27:16;;;;;;;4.10;3.20;;;;;;;0.19;80.07;95934.86;1770745;81;20992;-68
2021/12/19 04:29:42;;;;;;;6.53;3.83;;;;;;;0.21;79.86;95931.02;1770805;81;21095;-67
2021/12/19 04:32:11;;;;;;;5.23;3.90;;;;;;;0.17;79.87;95930.03;1770821;81;21067;-68
2021/12/19 04:34:37;;;;;;;4.73;3.33;;;;;;;0.17;80.13;95936.95;1770916;81;21016;-67
2021/12/19 04:37:19;;;;;;;8.80;5.70;;;;;;;0.17;80.15;95926.57;1771359;81;20996;-68
2021/12/19 04:39:42;;;;;;;8.07;4.37;;;;;;;0.18;80.09;95924.03;1770303;81;21032;-68
2021/12/19 04:53:22;;;;;;;4.80;3.17;;;;;;;0.21;80.55;95890.37;1771209;81;20976;-67
2021/12/19 04:58:49;;;;;;;4.93;2.80;;;;;;;0.25;80.66;95902.98;1770983;81;20992;-68
2021/12/19 05:01:09;;;;;;;6.90;3.70;;;;;;;0.26;80.62;95905.19;1769723;81;21044;-68
2021/12/19 05:03:33;;;;;;;5.83;3.47;;;;;;;0.23;80.66;95899.89;1770258;81;21490;-68
2021/12/19 05:14:13;;;;;;;7.17;3.40;;;;;;;0.18;80.89;95901.97;1770808;81;21027;-68
2021/12/19 05:16:41;;;;;;;9.57;5.10;;;;;;;0.19;80.94;95900.25;1771060;81;21032;-67
2021/12/19 05:19:19;;;;;;;8.97;4.03;;;;;;;0.19;81.03;95900.25;1771054;81;21020;-68
2021/12/19 05:21:38;;;;;;;6.20;3.30;;;;;;;0.16;81.17;95888.50;1770507;81;21565;-67
2021/12/19 05:24:43;;;;;;;4.87;3.70;;;;;;;0.19;81.07;95884.25;1770968;81;21035;-68
2021/12/19 05:26:49;;;;;;;4.73;3.37;;;;;;;0.19;81.03;95889.45;1770187;81;21035;-68
2021/12/19 05:29:16;;;;;;;4.67;2.87;;;;;;;0.20;81.05;95885.13;1770812;81;21547;-67
2021/12/19 05:31:43;;;;;;;6.00;3.60;;;;;;;0.23;80.97;95880.04;1771022;81;21517;-68
2021/12/19 05:34:11;;;;;;;8.33;4.70;;;;;;;0.22;81.17;95870.48;1771006;81;21016;-68
2021/12/19 05:47:23;;;;;;;6.93;3.97;;;;;;;0.30;80.91;95848.61;1770949;81;21035;-68
2021/12/19 05:49:50;;;;;;;5.73;3.47;;;;;;;0.31;80.90;95843.47;1771441;81;20988;-68
2021/12/19 05:52:17;;;;;;;5.23;3.20;;;;;;;0.32;80.94;95843.05;1770840;81;21059;-68
2021/12/19 05:54:43;;;;;;;6.93;3.97;;;;;;;0.35;80.87;95841.81;1770914;81;21126;-67
2021/12/19 05:57:10;;;;;;;4.30;2.97;;;;;;;0.37;80.79;95844.91;1771052;81;21035;-68
2021/12/19 05:59:37;;;;;;;5.90;3.23;;;;;;;0.38;80.77;95836.30;1770643;81;21107;-67
2021/12/19 06:02:04;;;;;;;5.17;3.07;;;;;;;0.42;80.61;95834.22;1770958;81;20979;-67
2021/12/19 06:04:30;;;;;;;4.70;2.63;;;;;;;0.47;80.56;95830.44;1770659;81;21091;-68
2021/12/19 06:06:57;;;;;;;4.97;2.60;;;;;;;0.53;80.47;95834.89;1770911;81;21498;-68
2021/12/19 06:09:23;;;;;;;3.73;2.50;;;;;;;0.55;80.33;95833.22;1770946;81;21016;-68
2021/12/19 06:11:50;;;;;;;3.20;2.30;;;;;;;0.55;80.17;95827.59;1770823;81;21619;-68
2021/12/19 06:14:16;;;;;;;4.47;1.90;;;;;;;0.57;80.09;95822.45;1771015;81;21023;-68
2021/12/19 06:16:44;;;;;;;4.40;2.40;;;;;;;0.59;80.05;95810.39;1771086;81;20992;-67
2021/12/19 06:19:10;;;;;;;8.77;3.83;;;;;;;0.63;79.94;95818.68;1771016;81;21023;-68
2021/12/19 06:21:36;;;;;;;6.43;2.97;;;;;;;0.68;79.76;95817.50;1771071;81;21083;-67
2021/12/19 06:24:04;;;;;;;6.30;2.90;;;;;;;0.71;79.59;95812.40;1770991;81;20972;-67
2021/12/19 06:26:33;;;;;;;5.30;2.80;;;;;;;0.72;79.67;95807.22;1770858;81;21465;-67
2021/12/19 06:28:58;;;;;;;7.37;4.77;;;;;;;0.77;79.94;95806.91;1777078;81;21047;-67
2021/12/19 06:31:24;;;;;;;9.37;5.50;;;;;;;0.79;79.92;95800.45;1779882;81;21043;-67
2021/12/19 06:33:51;;;;;;;13.70;8.33;;;;;;;0.81;79.69;95802.67;1779761;81;20972;-67
2021/12/19 06:36:17;;;;;;;11.27;6.80;;;;;;;0.83;79.59;95800.95;1779693;81;21003;-67
2021/12/19 06:38:44;;;;;;;14.90;9.07;;;;;;;0.86;79.62;95795.42;1779850;81;21020;-67
2021/12/19 06:41:10;;;;;;;8.97;6.33;;;;;;;0.89;79.31;95790.72;1779627;81;20987;-67
2021/12/19 06:43:37;;;;;;;8.00;5.23;;;;;;;0.91;79.32;95787.73;1779742;81;21501;-67
2021/12/19 06:46:04;;;;;;;9.40;5.03;;;;;;;0.94;79.45;95777.83;1779791;81;21521;-67
2021/12/19 06:48:30;;;;;;;31.17;15.40;;;;;;;0.91;79.57;95773.45;1779286;81;21023;-67
2021/12/19 06:50:57;;;;;;;14.20;7.57;;;;;;;0.88;79.91;95773.36;1779376;81;21139;-67
2021/12/19 06:53:24;;;;;;;14.60;7.17;;;;;;;0.93;80.16;95773.03;1779375;81;21556;-67
2021/12/19 06:55:51;;;;;;;16.27;9.17;;;;;;;0.94;80.02;95755.33;1779418;81;21071;-67
2021/12/19 06:58:18;;;;;;;12.67;5.20;;;;;;;0.93;79.86;95740.56;1779636;81;21501;-67
2021/12/19 07:00:45;;;;;;;8.43;4.33;;;;;;;0.97;80.14;95742.39;1779591;81;20964;-67
2021/12/19 07:03:14;;;;;;;11.30;4.90;;;;;;;1.02;80.49;95732.09;1779736;81;21015;-67
2021/12/19 07:05:40;;;;;;;5.17;3.37;;;;;;;1.00;80.57;95729.45;1779873;81;20976;-66
2021/12/19 07:08:07;;;;;;;5.30;3.10;;;;;;;1.02;80.55;95719.10;1779296;81;21020;-67
2021/12/19 07:10:34;;;;;;;5.57;2.90;;;;;;;1.09;80.73;95707.99;1779647;81;20984;-66
2021/12/19 07:13:01;;;;;;;12.77;7.43;;;;;;;1.13;80.95;95703.72;1779329;81;21099;-67
2021/12/19 07:15:28;;;;;;;12.70;7.33;;;;;;;1.20;81.12;95701.70;1779336;81;21603;-67
2021/12/19 07:17:57;;;;;;;10.77;6.43;;;;;;;1.24;80.66;95693.98;1779724;81;21027;-67
2021/12/19 07:20:24;;;;;;;8.10;4.77;;;;;;;1.22;80.46;95675.31;1779666;81;21096;-66
2021/12/19 07:22:51;;;;;;;9.03;5.73;;;;;;;1.27;81.00;95676.27;1779508;81;21035;-67
2021/12/19 07:25:17;;;;;;;53.33;27.93;;;;;;;1.27;81.28;95664.15;1779785;81;21013;-67
2021/12/19 07:27:44;;;;;;;56.13;29.20;;;;;;;1.34;81.20;95677.27;1779636;81;21529;-67
2021/12/19 07:30:12;;;;;;;41.20;22.80;;;;;;;1.44;81.31;95692.19;1779584;81;21007;-67
2021/12/19 07:32:39;;;;;;;37.27;21.03;;;;;;;1.53;81.13;95694.06;1780109;81;21078;-67
2021/12/19 07:35:09;;;;;;;38.23;21.20;;;;;;;1.55;80.73;95689.34;1779602;81;21019;-67
2021/12/19 07:37:37;;;;;;;39.63;22.80;;;;;;;1.56;80.46;95671.58;1779339;81;21493;-67
2021/12/19 07:40:13;;;;;;;35.03;19.90;;;;;;;1.67;80.90;95664.84;1779699;81;21015;-67
2021/12/19 07:42:37;;;;;;;36.23;19.37;;;;;;;1.79;80.72;95671.98;1779146;81;21059;-67
2021/12/19 07:45:06;;;;;;;35.63;17.87;;;;;;;1.88;80.57;95666.91;1779648;81;21426;-67
2021/12/19 07:47:34;;;;;;;23.17;13.63;;;;;;;1.97;80.45;95658.39;1779626;81;21066;-67
2021/12/19 07:50:00;;;;;;;10.93;7.70;;;;;;;2.05;79.13;95652.00;1779795;81;20995;-67
2021/12/19 07:52:27;;;;;;;14.90;11.23;;;;;;;2.07;77.47;95653.78;1779319;81;21030;-67
2021/12/19 07:55:13;;;;;;;10.77;7.80;;;;;;;2.10;75.73;95641.23;1779638;81;21550;-67
2021/12/19 07:57:40;;;;;;;9.40;5.50;;;;;;;2.11;76.03;95638.63;1652631;87;21062;-67
2021/12/19 08:00:10;;;;;;;9.17;6.00;;;;;;;2.12;74.59;95630.42;1653111;87;21025;-67
2021/12/19 08:02:42;;;;;;;5.80;3.72;;;;;;;2.17;75.02;95632.67;1653053;87;21061;-67
2021/12/19 08:05:10;;;;;;;4.60;3.27;;;;;;;2.20;73.45;95627.50;1652782;87;21102;-67
2021/12/19 08:07:38;;;;;;;8.07;4.87;;;;;;;2.23;74.33;95622.76;1652649;87;21058;-67
2021/12/19 08:12:34;;;;;;;31.57;16.30;;;;;;;2.16;74.05;95619.19;1652303;87;21045;-67
2021/12/19 08:15:02;;;;;;;16.83;9.70;;;;;;;2.21;74.74;95617.95;1652768;87;21097;-67
2021/12/19 08:17:30;;;;;;;18.77;10.20;;;;;;;2.24;74.31;95621.46;1652875;87;21572;-67
2021/12/19 08:19:58;;;;;;;14.97;9.27;;;;;;;2.29;74.63;95630.23;1652917;87;21086;-67
2021/12/19 08:22:26;;;;;;;12.97;7.13;;;;;;;2.35;75.17;95625.10;1652917;87;21022;-67
2021/12/19 08:24:52;;;;;;;9.10;5.87;;;;;;;2.45;74.88;95620.03;1625687;87;21050;-67
2021/12/19 08:27:19;;;;;;;12.97;7.80;;;;;;;2.50;73.73;95610.11;1625503;88;21026;-67
2021/12/19 08:29:49;;;;;;;10.07;6.00;;;;;;;2.58;73.41;95605.86;1625395;88;21097;-67
2021/12/19 08:32:16;;;;;;;7.20;4.83;;;;;;;2.68;73.45;95613.80;1625120;88;21114;-67
2021/12/19 08:34:42;;;;;;;7.73;4.00;;;;;;;2.71;71.41;95609.92;1625678;88;21035;-67
2021/12/19 08:37:09;;;;;;;4.30;3.00;;;;;;;2.73;71.60;95606.91;1625507;88;21102;-67
2021/12/19 08:39:37;;;;;;;6.77;3.77;;;;;;;2.73;71.33;95601.70;1625350;88;21041;-67
2021/12/19 08:42:06;;;;;;;9.40;4.83;;;;;;;2.70;70.77;95607.75;1625351;88;21591;-67
2021/12/19 08:44:33;;;;;;;14.93;7.87;;;;;;;2.71;70.60;95606.02;1625574;88;21026;-67
2021/12/19 08:47:00;;;;;;;16.17;9.03;;;;;;;2.66;70.81;95599.88;1625457;88;21038;-67
2021/12/19 08:49:26;;;;;;;16.10;9.10;;;;;;;2.75;71.46;95598.69;1625504;88;21045;-67
2021/12/19 08:51:54;;;;;;;13.13;6.43;;;;;;;2.85;71.97;95601.84;1625495;88;21002;-67
2021/12/19 08:54:22;;;;;;;13.83;6.80;;;;;;;2.94;71.91;95608.88;1607512;88;21030;-67
2021/12/19 08:56:50;;;;;;;7.93;4.50;;;;;;;3.04;72.17;95606.81;1622689;88;21058;-67
2021/12/19 08:59:17;;;;;;;7.77;5.30;;;;;;;3.07;70.00;95605.53;1621145;88;21035;-67
2021/12/19 09:01:44;;;;;;;10.90;5.80;;;;;;;3.10;70.33;95599.48;1620819;88;21529;-67
2021/12/19 09:04:11;;;;;;;8.23;5.40;;;;;;;3.14;69.31;95589.53;1621049;88;21093;-67
2021/12/19 09:06:37;;;;;;;5.40;3.73;;;;;;;3.20;69.22;95588.28;1620882;88;21023;-66
2021/12/19 09:09:05;;;;;;;6.20;3.57;;;;;;;3.24;68.51;95574.42;1621072;88;21080;-67
2021/12/19 09:11:33;;;;;;;58.07;32.73;;;;;;;3.19;67.73;95571.77;1620952;88;21529;-67
2021/12/19 09:14:00;;;;;;;13.63;8.67;;;;;;;3.17;69.15;95570.88;1620974;88;21086;-67
2021/12/19 09:16:27;;;;;;;7.50;4.83;;;;;;;3.23;68.80;95572.25;1621350;88;21082;-66
2021/12/19 09:18:54;;;;;;;7.43;4.60;;;;;;;3.37;69.04;95568.89;1621192;88;21067;-67
2021/12/19 09:21:21;;;;;;;6.87;3.80;;;;;;;3.44;67.62;95561.12;1620742;88;21071;-66
2021/12/19 09:23:47;;;;;;;7.10;4.20;;;;;;;3.45;67.55;95559.39;1621149;88;21077;-67
2021/12/19 09:26:14;;;;;;;5.60;3.77;;;;;;;3.52;67.74;95557.71;1621384;88;21111;-67
2021/12/19 09:28:41;;;;;;;8.23;5.60;;;;;;;3.62;67.87;95549.96;1621139;88;21027;-67
2021/12/19 09:31:07;;;;;;;7.33;4.70;;;;;;;3.76;67.95;95548.77;1620950;88;21062;-67
2021/12/19 09:33:34;;;;;;;5.07;3.30;;;;;;;3.99;67.49;95551.97;1621276;88;21477;-67
2021/12/19 09:36:00;;;;;;;7.77;5.20;;;;;;;4.05;66.63;95555.91;1621371;88;20999;-67
2021/12/19 09:38:27;;;;;;;5.07;3.57;;;;;;;3.95;65.16;95558.02;1621314;88;21512;-67
2021/12/19 09:41:12;;;;;;;5.13;3.20;;;;;;;3.75;64.39;95573.54;1621049;88;21014;-68
2021/12/19 09:43:41;;;;;;;5.90;3.40;;;;;;;3.52;64.36;95569.02;1620620;88;21042;-67
2021/12/19 09:46:02;;;;;;;5.13;3.33;;;;;;;3.29;65.26;95562.73;1621023;88;21055;-67
2021/12/19 09:48:29;;;;;;;5.07;3.07;;;;;;;3.17;65.61;95564.80;1621184;88;21066;-67
2021/12/19 09:50:56;;;;;;;5.70;3.63;;;;;;;2.98;65.25;95554.20;1620932;88;21043;-67
2021/12/19 09:53:22;;;;;;;5.33;3.63;;;;;;;2.95;66.48;95544.19;1621369;88;21023;-67
2021/12/19 09:55:49;;;;;;;6.90;4.37;;;;;;;2.86;66.45;95538.44;1620344;88;21050;-67
2021/12/19 09:58:15;;;;;;;4.63;3.60;;;;;;;2.85;66.41;95534.09;1590375;90;21080;-67
2021/12/19 10:00:42;;;;;;;5.27;3.77;;;;;;;2.83;66.62;95530.59;1637571;87;20996;-67
2021/12/19 10:03:11;;;;;;;6.97;4.00;;;;;;;2.85;66.91;95523.67;1637104;87;21064;-68
2021/12/19 10:05:38;;;;;;;6.33;4.27;;;;;;;2.84;67.20;95527.11;1637135;87;21589;-67
2021/12/19 10:08:04;;;;;;;8.07;4.80;;;;;;;2.83;67.05;95518.87;1637554;88;21091;-67
2021/12/19 10:10:55;;;;;;;6.93;4.43;;;;;;;2.87;67.33;95519.32;1637109;87;21068;-67
2021/12/19 10:13:15;;;;;;;7.13;4.90;;;;;;;2.92;67.47;95516.33;1635891;88;21538;-67
2021/12/19 10:15:43;;;;;;;6.17;4.23;;;;;;;2.97;67.97;95502.94;1637397;87;21008;-67
2021/12/19 10:18:15;;;;;;;6.97;5.00;;;;;;;2.99;67.31;95495.98;1637112;87;21064;-67
2021/12/19 10:20:57;;;;;;;5.37;3.43;;;;;;;3.04;67.31;95492.12;1637396;87;20996;-67
2021/12/19 10:23:34;;;;;;;5.77;3.80;;;;;;;3.00;67.28;95482.55;1637330;87;21545;-67
2021/12/19 10:26:07;;;;;;;5.80;4.33;;;;;;;3.05;67.55;95479.55;1632921;87;21047;-67
2021/12/19 10:29:00;;;;;;;5.50;3.98;;;;;;;3.01;68.13;95481.23;1637308;87;21024;-67
2021/12/19 10:31:30;;;;;;;6.90;4.03;;;;;;;3.00;67.63;95482.11;1635371;87;21072;-67
2021/12/19 10:33:56;;;;;;;7.00;4.40;;;;;;;2.97;67.83;95462.95;1637244;88;21555;-67
2021/12/19 10:36:23;;;;;;;8.53;5.37;;;;;;;2.96;68.15;95463.83;1633042;87;21051;-67
2021/12/19 10:38:52;;;;;;;8.33;5.90;;;;;;;2.98;68.58;95453.85;1637293;87;21012;-67
2021/12/19 10:41:32;;;;;;;8.70;5.93;;;;;;;3.02;68.57;95441.30;1637242;88;21518;-67
2021/12/19 10:44:03;;;;;;;10.20;5.73;;;;;;;2.98;68.63;95426.48;1637080;88;21506;-67
2021/12/19 10:46:35;;;;;;;9.40;5.93;;;;;;;2.94;68.37;95421.23;1637191;87;21518;-67
2021/12/19 10:49:03;;;;;;;13.40;6.90;;;;;;;2.83;68.73;95402.91;1637449;87;21510;-67
2021/12/19 10:51:32;;;;;;;11.03;6.37;;;;;;;2.92;69.68;95400.80;1637198;88;21501;-67
2021/12/19 10:54:03;;;;;;;10.07;6.87;;;;;;;3.51;69.54;95392.51;1637079;88;21080;-68
2021/12/19 10:56:34;;;;;;;10.43;6.47;;;;;;;4.25;67.05;95383.20;1633933;87;21030;-67
2021/12/19 10:59:05;;;;;;;8.23;5.80;;;;;;;4.92;65.23;95372.41;1621190;88;21101;-67
2021/12/19 11:01:38;;;;;;;8.00;6.10;;;;;;;5.46;63.12;95355.31;1621179;87;21042;-67
2021/12/19 11:04:20;;;;;;;11.53;7.17;;;;;;;6.11;61.74;95361.21;1620478;87;21074;-66
2021/12/19 11:06:52;;;;;;;8.87;6.57;;;;;;;6.71;59.48;95359.09;1621034;88;20999;-66
2021/12/19 11:09:34;;;;;;;8.78;6.50;;;;;;;7.18;58.88;95354.31;1621196;87;21066;-67
2021/12/19 11:12:06;;;;;;;6.87;5.12;;;;;;;7.68;57.84;95338.03;1620946;88;21066;-67
2021/12/19 11:14:47;;;;;;;10.85;8.15;;;;;;;8.28;55.65;95322.83;1621074;88;21086;-66
2021/12/19 11:17:20;;;;;;;6.17;4.30;;;;;;;8.86;55.23;95316.71;1621145;87;21564;-67
2021/12/19 11:19:50;;;;;;;6.92;5.90;;;;;;;9.40;51.91;95311.84;1621253;88;21078;-67
2021/12/19 11:22:24;;;;;;;6.65;4.50;;;;;;;9.51;50.29;95304.60;1621060;88;21103;-67
2021/12/19 11:24:54;;;;;;;8.38;6.40;;;;;;;9.65;49.89;95300.82;1621177;88;21007;-67
2021/12/19 11:27:22;;;;;;;6.83;5.30;;;;;;;9.79;48.94;95292.66;1620817;88;21593;-67
2021/12/19 11:29:52;;;;;;;6.75;4.53;;;;;;;9.94;49.65;95277.84;1621097;87;21051;-67
2021/12/19 11:32:39;;;;;;;6.12;4.85;;;;;;;9.91;47.14;95278.78;1621340;87;21058;-67
2021/12/19 11:35:13;;;;;;;6.33;4.95;;;;;;;10.01;47.97;95272.86;1621154;88;21074;-67
2021/12/19 11:37:45;;;;;;;3.77;2.90;;;;;;;10.10;48.43;95279.69;1621136;87;21055;-67
2021/12/19 11:40:18;;;;;;;3.50;3.10;;;;;;;9.96;48.09;95302.41;1621129;87;21058;-64
2021/12/19 11:42:45;;;;;;;3.92;3.20;;;;;;;9.61;48.10;95299.16;1621004;87;21094;-64
2021/12/19 11:45:32;;;;;;;4.00;3.27;;;;;;;9.15;48.88;95292.10;1621174;88;21084;-64
2021/12/19 11:48:07;;;;;;;6.42;4.25;;;;;;;8.82;49.78;95290.05;1620951;87;21106;-64
2021/12/19 11:50:33;;;;;;;5.15;3.92;;;;;;;8.71;52.26;95289.34;1614344;88;21050;-64
2021/12/19 11:53:11;;;;;;;4.80;3.60;;;;;;;8.57;53.16;95288.72;1621098;88;21054;-64
2021/12/19 11:55:42;;;;;;;4.87;4.05;;;;;;;8.44;53.67;95293.27;1620967;88;21114;-64
2021/12/19 11:58:14;;;;;;;4.87;4.37;;;;;;;8.20;55.13;95280.02;1635850;87;21110;-64
2021/12/19 12:00:58;;;;;;;5.25;4.08;;;;;;;8.23;55.81;95274.27;1609477;89;21058;-64
2021/12/19 12:03:45;;;;;;;5.95;4.25;;;;;;;8.27;56.12;95273.80;1609557;89;21119;-64
2021/12/19 12:06:20;;;;;;;5.15;4.42;;;;;;;8.47;55.95;95274.84;1609387;89;21505;-64
2021/12/19 12:09:10;;;;;;;6.35;4.67;;;;;;;8.55;55.26;95277.34;1609127;89;21071;-64
2021/12/19 12:11:58;;;;;;;12.33;7.50;;;;;;;8.16;55.80;95281.81;1609090;89;21103;-67
2021/12/19 12:14:34;;;;;;;12.70;7.37;;;;;;;7.72;52.92;95289.85;1609565;89;21039;-66
2021/12/19 12:17:06;;;;;;;6.25;4.80;;;;;;;7.11;54.91;95296.66;1609438;89;21043;-66
2021/12/19 12:19:52;;;;;;;5.42;3.87;;;;;;;6.38;56.98;95287.69;1609345;89;21063;-66
2021/12/19 12:22:33;;;;;;;9.63;6.47;;;;;;;6.08;58.89;95286.59;1608884;89;21027;-66
2021/12/19 12:25:21;;;;;;;5.73;4.97;;;;;;;5.84;59.42;95285.80;1608726;89;21087;-66
2021/12/19 12:27:54;;;;;;;5.00;4.10;;;;;;;5.68;61.77;95290.24;1609350;89;21051;-66
2021/12/19 12:30:28;;;;;;;6.12;4.58;;;;;;;5.42;64.18;95290.36;1609494;89;21059;-66
2021/12/19 12:32:58;;;;;;;9.30;5.63;;;;;;;5.31;63.94;95290.37;1609422;89;21059;-66
2021/12/19 12:35:28;;;;;;;13.17;7.57;;;;;;;5.12;61.46;95289.57;1609375;89;21055;-66
2021/12/19 12:37:55;;;;;;;16.43;10.60;;;;;;;4.76;60.86;95301.84;1609233;89;21055;-66
2021/12/19 12:40:31;;;;;;;15.17;10.23;;;;;;;4.29;62.04;95297.48;1609445;89;20995;-66
2021/12/19 12:43:22;;;;;;;12.77;7.60;;;;;;;4.15;62.33;95304.41;1609198;89;21058;-66
2021/12/19 12:46:07;;;;;;;12.90;7.60;;;;;;;3.72;64.18;95306.92;1609042;89;21122;-66
2021/12/19 12:48:42;;;;;;;12.37;7.43;;;;;;;3.62;63.76;95304.71;1609650;89;21486;-66